sensor_id;sensor_type;location;lat;lon;timestamp;temperature;humidity
12708;DHT22;6418;50.824;4.718;2022-08-19T00:00:48;18.80;99.90
12708;DHT22;6418;50.824;4.718;2022-08-19T00:03:16;18.70;99.90
12708;DHT22;6418;50.824;4.718;2022-08-19T00:05:43;18.70;99.90
12708;DHT22;6418;50.824;4.718;2022-08-19T00:08:12;18.60;99.90
12708;DHT22;6418;50.824;4.718;2022-08-19T00:10:39;18.60;99.90
12708;DHT22;6418;50.824;4.718;2022-08-19T00:13:06;18.50;99.90
12708;DHT22;6418;50.824;4.718;2022-08-19T00:15:33;18.50;99.90
12708;DHT22;6418;50.824;4.718;2022-08-19T00:18:00;18.50;99.90
12708;DHT22;6418;50.824;4.718;2022-08-19T00:20:27;18.50;99.90
12708;DHT22;6418;50.824;4.718;2022-08-19T00:22:54;18.50;99.90
12708;DHT22;6418;50.824;4.718;2022-08-19T00:25:22;18.40;99.90
12708;DHT22;6418;50.824;4.718;2022-08-19T00:27:49;18.40;99.90
12708;DHT22;6418;50.824;4.718;2022-08-19T00:30:16;18.40;99.90
12708;DHT22;6418;50.824;4.718;2022-08-19T00:32:43;18.40;99.90
12708;DHT22;6418;50.824;4.718;2022-08-19T00:35:10;18.30;99.90
12708;DHT22;6418;50.824;4.718;2022-08-19T00:37:37;18.30;99.90
12708;DHT22;6418;50.824;4.718;2022-08-19T00:40:10;18.30;99.90
12708;DHT22;6418;50.824;4.718;2022-08-19T00:42:39;18.30;99.90
12708;DHT22;6418;50.824;4.718;2022-08-19T00:45:11;18.20;99.90
12708;DHT22;6418;50.824;4.718;2022-08-19T00:47:39;18.20;99.90
12708;DHT22;6418;50.824;4.718;2022-08-19T00:50:08;18.20;99.90
12708;DHT22;6418;50.824;4.718;2022-08-19T00:52:39;18.10;99.90
12708;DHT22;6418;50.824;4.718;2022-08-19T00:55:13;18.10;99.90
12708;DHT22;6418;50.824;4.718;2022-08-19T00:57:46;18.10;99.90
12708;DHT22;6418;50.824;4.718;2022-08-19T01:00:17;18.00;99.90
12708;DHT22;6418;50.824;4.718;2022-08-19T01:02:44;18.00;99.90
12708;DHT22;6418;50.824;4.718;2022-08-19T01:05:14;17.90;99.90
12708;DHT22;6418;50.824;4.718;2022-08-19T01:07:44;17.90;99.90
12708;DHT22;6418;50.824;4.718;2022-08-19T01:10:13;17.80;99.90
12708;DHT22;6418;50.824;4.718;2022-08-19T01:12:42;17.80;99.90
12708;DHT22;6418;50.824;4.718;2022-08-19T01:15:11;17.80;99.90
12708;DHT22;6418;50.824;4.718;2022-08-19T01:17:40;17.80;99.90
12708;DHT22;6418;50.824;4.718;2022-08-19T01:20:11;17.80;99.90
12708;DHT22;6418;50.824;4.718;2022-08-19T01:22:44;17.80;99.90
12708;DHT22;6418;50.824;4.718;2022-08-19T01:25:12;17.80;99.90
12708;DHT22;6418;50.824;4.718;2022-08-19T01:27:41;17.80;99.90
12708;DHT22;6418;50.824;4.718;2022-08-19T01:30:11;17.80;99.90
12708;DHT22;6418;50.824;4.718;2022-08-19T01:32:38;17.70;99.90
12708;DHT22;6418;50.824;4.718;2022-08-19T01:35:05;17.70;99.90
12708;DHT22;6418;50.824;4.718;2022-08-19T01:37:44;17.70;99.90
12708;DHT22;6418;50.824;4.718;2022-08-19T01:40:11;17.70;99.90
12708;DHT22;6418;50.824;4.718;2022-08-19T01:42:38;17.70;99.90
12708;DHT22;6418;50.824;4.718;2022-08-19T01:45:07;17.70;99.90
12708;DHT22;6418;50.824;4.718;2022-08-19T01:47:35;17.70;99.90
12708;DHT22;6418;50.824;4.718;2022-08-19T01:50:04;17.70;99.90
12708;DHT22;6418;50.824;4.718;2022-08-19T01:52:31;17.60;99.90
12708;DHT22;6418;50.824;4.718;2022-08-19T01:55:00;17.60;99.90
12708;DHT22;6418;50.824;4.718;2022-08-19T01:57:27;17.60;99.90
12708;DHT22;6418;50.824;4.718;2022-08-19T01:59:54;17.60;99.90
12708;DHT22;6418;50.824;4.718;2022-08-19T02:02:22;17.50;99.90
12708;DHT22;6418;50.824;4.718;2022-08-19T02:04:49;17.50;99.90
12708;DHT22;6418;50.824;4.718;2022-08-19T02:07:18;17.50;99.90
12708;DHT22;6418;50.824;4.718;2022-08-19T02:09:45;17.40;99.90
12708;DHT22;6418;50.824;4.718;2022-08-19T02:12:14;17.40;99.90
12708;DHT22;6418;50.824;4.718;2022-08-19T02:14:42;17.40;99.90
12708;DHT22;6418;50.824;4.718;2022-08-19T02:17:09;17.40;99.90
12708;DHT22;6418;50.824;4.718;2022-08-19T02:19:35;17.30;99.90
12708;DHT22;6418;50.824;4.718;2022-08-19T02:22:03;17.30;99.90
12708;DHT22;6418;50.824;4.718;2022-08-19T02:24:30;17.30;99.90
12708;DHT22;6418;50.824;4.718;2022-08-19T02:26:57;17.30;99.90
12708;DHT22;6418;50.824;4.718;2022-08-19T02:29:25;17.20;99.90
12708;DHT22;6418;50.824;4.718;2022-08-19T02:31:52;17.20;99.90
12708;DHT22;6418;50.824;4.718;2022-08-19T02:34:19;17.20;99.90
12708;DHT22;6418;50.824;4.718;2022-08-19T02:36:46;17.20;99.90
12708;DHT22;6418;50.824;4.718;2022-08-19T02:39:13;17.20;99.90
12708;DHT22;6418;50.824;4.718;2022-08-19T02:41:39;17.20;99.90
12708;DHT22;6418;50.824;4.718;2022-08-19T02:44:06;17.10;99.90
12708;DHT22;6418;50.824;4.718;2022-08-19T02:46:34;17.10;99.90
12708;DHT22;6418;50.824;4.718;2022-08-19T02:49:04;17.10;99.90
12708;DHT22;6418;50.824;4.718;2022-08-19T02:51:35;17.00;99.90
12708;DHT22;6418;50.824;4.718;2022-08-19T02:54:03;17.00;99.90
12708;DHT22;6418;50.824;4.718;2022-08-19T02:56:30;17.00;99.90
12708;DHT22;6418;50.824;4.718;2022-08-19T02:58:58;16.90;99.90
12708;DHT22;6418;50.824;4.718;2022-08-19T03:01:26;16.90;99.90
12708;DHT22;6418;50.824;4.718;2022-08-19T03:03:55;16.90;99.90
12708;DHT22;6418;50.824;4.718;2022-08-19T03:06:23;16.90;99.90
12708;DHT22;6418;50.824;4.718;2022-08-19T03:08:51;16.80;99.90
12708;DHT22;6418;50.824;4.718;2022-08-19T03:11:20;16.80;99.90
12708;DHT22;6418;50.824;4.718;2022-08-19T03:13:48;16.80;99.90
12708;DHT22;6418;50.824;4.718;2022-08-19T03:16:16;16.80;99.90
12708;DHT22;6418;50.824;4.718;2022-08-19T03:18:44;16.70;99.90
12708;DHT22;6418;50.824;4.718;2022-08-19T03:21:16;16.70;99.90
12708;DHT22;6418;50.824;4.718;2022-08-19T03:23:43;16.70;99.90
12708;DHT22;6418;50.824;4.718;2022-08-19T03:26:10;16.70;99.90
12708;DHT22;6418;50.824;4.718;2022-08-19T03:28:38;16.70;99.90
12708;DHT22;6418;50.824;4.718;2022-08-19T03:31:06;16.70;99.90
12708;DHT22;6418;50.824;4.718;2022-08-19T03:33:35;16.70;99.90
12708;DHT22;6418;50.824;4.718;2022-08-19T03:36:06;16.70;99.90
12708;DHT22;6418;50.824;4.718;2022-08-19T03:38:36;16.70;99.90
12708;DHT22;6418;50.824;4.718;2022-08-19T03:41:06;16.70;99.90
12708;DHT22;6418;50.824;4.718;2022-08-19T03:43:34;16.70;99.90
12708;DHT22;6418;50.824;4.718;2022-08-19T03:46:03;16.70;99.90
12708;DHT22;6418;50.824;4.718;2022-08-19T03:48:31;16.70;99.90
12708;DHT22;6418;50.824;4.718;2022-08-19T03:50:58;16.70;99.90
12708;DHT22;6418;50.824;4.718;2022-08-19T03:53:26;16.70;99.90
12708;DHT22;6418;50.824;4.718;2022-08-19T03:55:55;16.70;99.90
12708;DHT22;6418;50.824;4.718;2022-08-19T03:58:23;16.70;99.90
12708;DHT22;6418;50.824;4.718;2022-08-19T04:00:50;16.70;99.90
12708;DHT22;6418;50.824;4.718;2022-08-19T04:03:17;16.60;99.90
12708;DHT22;6418;50.824;4.718;2022-08-19T04:05:45;16.60;99.90
12708;DHT22;6418;50.824;4.718;2022-08-19T04:08:14;16.60;99.90
12708;DHT22;6418;50.824;4.718;2022-08-19T04:10:45;16.60;99.90
12708;DHT22;6418;50.824;4.718;2022-08-19T04:13:14;16.60;99.90
12708;DHT22;6418;50.824;4.718;2022-08-19T04:15:42;16.60;99.90
12708;DHT22;6418;50.824;4.718;2022-08-19T04:18:10;16.50;99.90
12708;DHT22;6418;50.824;4.718;2022-08-19T04:20:43;16.50;99.90
12708;DHT22;6418;50.824;4.718;2022-08-19T04:23:10;16.50;99.90
12708;DHT22;6418;50.824;4.718;2022-08-19T04:25:39;16.50;99.90
12708;DHT22;6418;50.824;4.718;2022-08-19T04:28:07;16.50;99.90
12708;DHT22;6418;50.824;4.718;2022-08-19T04:30:50;16.50;99.90
12708;DHT22;6418;50.824;4.718;2022-08-19T04:33:19;16.50;99.90
12708;DHT22;6418;50.824;4.718;2022-08-19T04:35:48;16.50;99.90
12708;DHT22;6418;50.824;4.718;2022-08-19T04:38:17;16.40;99.90
12708;DHT22;6418;50.824;4.718;2022-08-19T04:40:46;16.40;99.90
12708;DHT22;6418;50.824;4.718;2022-08-19T04:43:32;16.40;99.90
12708;DHT22;6418;50.824;4.718;2022-08-19T04:46:04;16.40;99.90
12708;DHT22;6418;50.824;4.718;2022-08-19T04:48:31;16.40;99.90
12708;DHT22;6418;50.824;4.718;2022-08-19T04:50:58;16.40;99.90
12708;DHT22;6418;50.824;4.718;2022-08-19T04:53:26;16.40;99.90
12708;DHT22;6418;50.824;4.718;2022-08-19T04:55:54;16.40;99.90
12708;DHT22;6418;50.824;4.718;2022-08-19T04:58:21;16.40;99.90
12708;DHT22;6418;50.824;4.718;2022-08-19T05:00:48;16.40;99.90
12708;DHT22;6418;50.824;4.718;2022-08-19T05:03:17;16.40;99.90
12708;DHT22;6418;50.824;4.718;2022-08-19T05:05:45;16.40;99.90
12708;DHT22;6418;50.824;4.718;2022-08-19T05:08:16;16.40;99.90
12708;DHT22;6418;50.824;4.718;2022-08-19T05:10:46;16.40;99.90
12708;DHT22;6418;50.824;4.718;2022-08-19T05:13:14;16.50;99.90
12708;DHT22;6418;50.824;4.718;2022-08-19T05:15:42;16.50;99.90
12708;DHT22;6418;50.824;4.718;2022-08-19T05:18:09;16.50;99.90
12708;DHT22;6418;50.824;4.718;2022-08-19T05:20:54;16.50;99.90
12708;DHT22;6418;50.824;4.718;2022-08-19T05:23:39;16.50;99.90
12708;DHT22;6418;50.824;4.718;2022-08-19T05:26:06;16.50;99.90
12708;DHT22;6418;50.824;4.718;2022-08-19T05:28:34;16.50;99.90
12708;DHT22;6418;50.824;4.718;2022-08-19T05:31:01;16.50;99.90
12708;DHT22;6418;50.824;4.718;2022-08-19T05:33:28;16.50;99.90
12708;DHT22;6418;50.824;4.718;2022-08-19T05:35:57;16.50;99.90
12708;DHT22;6418;50.824;4.718;2022-08-19T05:38:24;16.50;99.90
12708;DHT22;6418;50.824;4.718;2022-08-19T05:40:52;16.50;99.90
12708;DHT22;6418;50.824;4.718;2022-08-19T05:43:19;16.60;99.90
12708;DHT22;6418;50.824;4.718;2022-08-19T05:45:46;16.50;99.90
12708;DHT22;6418;50.824;4.718;2022-08-19T05:48:16;16.60;99.90
12708;DHT22;6418;50.824;4.718;2022-08-19T05:50:46;16.60;99.90
12708;DHT22;6418;50.824;4.718;2022-08-19T05:53:17;16.60;99.90
12708;DHT22;6418;50.824;4.718;2022-08-19T05:55:44;16.60;99.90
12708;DHT22;6418;50.824;4.718;2022-08-19T05:58:11;16.60;99.90
12708;DHT22;6418;50.824;4.718;2022-08-19T06:00:38;16.60;99.90
12708;DHT22;6418;50.824;4.718;2022-08-19T06:03:06;16.60;99.90
12708;DHT22;6418;50.824;4.718;2022-08-19T06:05:33;16.60;99.90
12708;DHT22;6418;50.824;4.718;2022-08-19T06:07:59;16.70;99.90
12708;DHT22;6418;50.824;4.718;2022-08-19T06:10:28;16.70;99.90
12708;DHT22;6418;50.824;4.718;2022-08-19T06:12:55;16.80;99.90
12708;DHT22;6418;50.824;4.718;2022-08-19T06:15:22;16.80;99.90
12708;DHT22;6418;50.824;4.718;2022-08-19T06:17:51;16.80;99.90
12708;DHT22;6418;50.824;4.718;2022-08-19T06:20:18;16.90;99.90
12708;DHT22;6418;50.824;4.718;2022-08-19T06:22:49;16.90;99.90
12708;DHT22;6418;50.824;4.718;2022-08-19T06:25:17;17.00;99.90
12708;DHT22;6418;50.824;4.718;2022-08-19T06:27:45;17.00;99.90
12708;DHT22;6418;50.824;4.718;2022-08-19T06:30:12;17.00;99.90
12708;DHT22;6418;50.824;4.718;2022-08-19T06:32:40;17.10;99.90
12708;DHT22;6418;50.824;4.718;2022-08-19T06:35:08;17.20;99.90
12708;DHT22;6418;50.824;4.718;2022-08-19T06:37:36;17.20;99.90
12708;DHT22;6418;50.824;4.718;2022-08-19T06:40:04;17.20;99.90
12708;DHT22;6418;50.824;4.718;2022-08-19T06:42:31;17.30;99.90
12708;DHT22;6418;50.824;4.718;2022-08-19T06:45:00;17.30;99.90
12708;DHT22;6418;50.824;4.718;2022-08-19T06:47:29;17.40;99.90
12708;DHT22;6418;50.824;4.718;2022-08-19T06:49:56;17.50;99.90
12708;DHT22;6418;50.824;4.718;2022-08-19T06:52:30;17.50;99.90
12708;DHT22;6418;50.824;4.718;2022-08-19T06:54:57;17.60;99.90
12708;DHT22;6418;50.824;4.718;2022-08-19T06:57:25;17.70;99.90
12708;DHT22;6418;50.824;4.718;2022-08-19T06:59:52;17.70;99.90
12708;DHT22;6418;50.824;4.718;2022-08-19T07:02:21;17.80;99.90
12708;DHT22;6418;50.824;4.718;2022-08-19T07:04:52;17.90;99.90
12708;DHT22;6418;50.824;4.718;2022-08-19T07:07:20;17.90;99.90
12708;DHT22;6418;50.824;4.718;2022-08-19T07:09:50;18.00;99.90
12708;DHT22;6418;50.824;4.718;2022-08-19T07:12:18;18.10;99.90
12708;DHT22;6418;50.824;4.718;2022-08-19T07:14:45;18.10;99.90
12708;DHT22;6418;50.824;4.718;2022-08-19T07:17:12;18.20;99.90
12708;DHT22;6418;50.824;4.718;2022-08-19T07:19:41;18.30;99.90
12708;DHT22;6418;50.824;4.718;2022-08-19T07:22:09;18.40;99.90
12708;DHT22;6418;50.824;4.718;2022-08-19T07:24:37;18.40;99.90
12708;DHT22;6418;50.824;4.718;2022-08-19T07:27:06;18.50;99.90
12708;DHT22;6418;50.824;4.718;2022-08-19T07:29:35;18.50;99.90
12708;DHT22;6418;50.824;4.718;2022-08-19T07:32:04;18.60;99.90
12708;DHT22;6418;50.824;4.718;2022-08-19T07:34:32;18.60;99.90
12708;DHT22;6418;50.824;4.718;2022-08-19T07:37:04;18.70;99.90
12708;DHT22;6418;50.824;4.718;2022-08-19T07:39:33;18.80;99.90
12708;DHT22;6418;50.824;4.718;2022-08-19T07:42:03;18.80;99.90
12708;DHT22;6418;50.824;4.718;2022-08-19T07:44:31;18.80;99.90
12708;DHT22;6418;50.824;4.718;2022-08-19T07:47:00;18.90;99.90
12708;DHT22;6418;50.824;4.718;2022-08-19T07:49:27;19.00;99.90
12708;DHT22;6418;50.824;4.718;2022-08-19T07:51:57;19.10;99.90
12708;DHT22;6418;50.824;4.718;2022-08-19T07:54:27;19.10;99.90
12708;DHT22;6418;50.824;4.718;2022-08-19T07:56:54;19.20;99.90
12708;DHT22;6418;50.824;4.718;2022-08-19T07:59:23;19.30;99.90
12708;DHT22;6418;50.824;4.718;2022-08-19T08:01:50;19.30;99.90
12708;DHT22;6418;50.824;4.718;2022-08-19T08:04:18;19.40;99.90
12708;DHT22;6418;50.824;4.718;2022-08-19T08:07:03;19.50;99.90
12708;DHT22;6418;50.824;4.718;2022-08-19T08:09:49;19.50;99.90
12708;DHT22;6418;50.824;4.718;2022-08-19T08:12:19;19.60;99.90
12708;DHT22;6418;50.824;4.718;2022-08-19T08:14:49;19.70;99.90
12708;DHT22;6418;50.824;4.718;2022-08-19T08:17:19;19.80;99.90
12708;DHT22;6418;50.824;4.718;2022-08-19T08:19:46;19.80;99.90
12708;DHT22;6418;50.824;4.718;2022-08-19T08:22:17;20.00;99.90
12708;DHT22;6418;50.824;4.718;2022-08-19T08:25:03;20.10;99.90
12708;DHT22;6418;50.824;4.718;2022-08-19T08:27:30;20.30;99.90
12708;DHT22;6418;50.824;4.718;2022-08-19T08:29:57;20.40;99.90
12708;DHT22;6418;50.824;4.718;2022-08-19T08:32:24;20.60;99.90
12708;DHT22;6418;50.824;4.718;2022-08-19T08:34:52;20.70;99.90
12708;DHT22;6418;50.824;4.718;2022-08-19T08:37:19;20.80;99.90
12708;DHT22;6418;50.824;4.718;2022-08-19T08:39:47;20.90;99.90
12708;DHT22;6418;50.824;4.718;2022-08-19T08:42:20;21.00;99.90
12708;DHT22;6418;50.824;4.718;2022-08-19T08:44:55;21.10;99.90
12708;DHT22;6418;50.824;4.718;2022-08-19T08:47:25;21.10;99.90
12708;DHT22;6418;50.824;4.718;2022-08-19T08:49:57;21.20;99.90
12708;DHT22;6418;50.824;4.718;2022-08-19T08:52:28;21.20;99.90
12708;DHT22;6418;50.824;4.718;2022-08-19T08:54:59;21.30;99.90
12708;DHT22;6418;50.824;4.718;2022-08-19T08:57:35;21.40;99.90
12708;DHT22;6418;50.824;4.718;2022-08-19T09:00:09;21.50;99.90
12708;DHT22;6418;50.824;4.718;2022-08-19T09:02:38;21.60;99.90
12708;DHT22;6418;50.824;4.718;2022-08-19T09:05:05;21.60;99.90
12708;DHT22;6418;50.824;4.718;2022-08-19T09:07:41;21.70;99.90
12708;DHT22;6418;50.824;4.718;2022-08-19T09:10:18;21.80;99.90
12708;DHT22;6418;50.824;4.718;2022-08-19T09:12:54;21.80;99.90
12708;DHT22;6418;50.824;4.718;2022-08-19T09:15:29;21.90;99.90
12708;DHT22;6418;50.824;4.718;2022-08-19T09:18:00;21.90;99.90
12708;DHT22;6418;50.824;4.718;2022-08-19T09:20:29;22.00;99.90
12708;DHT22;6418;50.824;4.718;2022-08-19T09:22:57;22.10;99.90
12708;DHT22;6418;50.824;4.718;2022-08-19T09:25:25;22.20;99.90
12708;DHT22;6418;50.824;4.718;2022-08-19T09:27:55;22.30;99.90
12708;DHT22;6418;50.824;4.718;2022-08-19T09:30:25;22.40;99.90
12708;DHT22;6418;50.824;4.718;2022-08-19T09:32:54;22.50;99.90
12708;DHT22;6418;50.824;4.718;2022-08-19T09:35:22;22.60;99.90
12708;DHT22;6418;50.824;4.718;2022-08-19T09:37:50;22.60;99.90
12708;DHT22;6418;50.824;4.718;2022-08-19T09:40:18;22.80;99.90
12708;DHT22;6418;50.824;4.718;2022-08-19T09:42:46;22.90;99.90
12708;DHT22;6418;50.824;4.718;2022-08-19T09:45:15;23.00;99.90
12708;DHT22;6418;50.824;4.718;2022-08-19T09:47:43;23.10;99.90
12708;DHT22;6418;50.824;4.718;2022-08-19T09:50:12;23.20;99.90
12708;DHT22;6418;50.824;4.718;2022-08-19T09:52:39;23.40;99.90
12708;DHT22;6418;50.824;4.718;2022-08-19T09:55:09;23.40;99.90
12708;DHT22;6418;50.824;4.718;2022-08-19T09:57:37;23.50;99.90
12708;DHT22;6418;50.824;4.718;2022-08-19T10:00:07;23.60;99.90
12708;DHT22;6418;50.824;4.718;2022-08-19T10:02:36;23.60;99.90
12708;DHT22;6418;50.824;4.718;2022-08-19T10:05:03;23.70;99.90
12708;DHT22;6418;50.824;4.718;2022-08-19T10:07:48;23.70;99.90
12708;DHT22;6418;50.824;4.718;2022-08-19T10:10:16;23.70;99.90
12708;DHT22;6418;50.824;4.718;2022-08-19T10:12:43;23.70;99.90
12708;DHT22;6418;50.824;4.718;2022-08-19T10:15:13;23.60;99.90
12708;DHT22;6418;50.824;4.718;2022-08-19T10:17:41;23.60;99.90
12708;DHT22;6418;50.824;4.718;2022-08-19T10:20:09;23.50;99.90
12708;DHT22;6418;50.824;4.718;2022-08-19T10:22:36;23.60;99.90
12708;DHT22;6418;50.824;4.718;2022-08-19T10:25:05;23.60;99.90
12708;DHT22;6418;50.824;4.718;2022-08-19T10:27:32;23.70;99.90
12708;DHT22;6418;50.824;4.718;2022-08-19T10:29:59;23.80;99.90
12708;DHT22;6418;50.824;4.718;2022-08-19T10:32:26;23.90;99.90
12708;DHT22;6418;50.824;4.718;2022-08-19T10:34:56;23.90;99.90
12708;DHT22;6418;50.824;4.718;2022-08-19T10:37:23;24.00;99.90
12708;DHT22;6418;50.824;4.718;2022-08-19T10:39:50;24.10;99.90
12708;DHT22;6418;50.824;4.718;2022-08-19T10:42:17;24.20;99.90
12708;DHT22;6418;50.824;4.718;2022-08-19T10:44:45;24.30;99.90
12708;DHT22;6418;50.824;4.718;2022-08-19T10:47:13;24.40;99.90
12708;DHT22;6418;50.824;4.718;2022-08-19T10:49:40;24.40;99.90
12708;DHT22;6418;50.824;4.718;2022-08-19T10:52:22;24.40;99.90
12708;DHT22;6418;50.824;4.718;2022-08-19T10:55:02;24.40;99.90
12708;DHT22;6418;50.824;4.718;2022-08-19T10:57:47;24.40;99.90
12708;DHT22;6418;50.824;4.718;2022-08-19T11:00:14;24.50;99.90
12708;DHT22;6418;50.824;4.718;2022-08-19T11:02:41;24.60;99.90
12708;DHT22;6418;50.824;4.718;2022-08-19T11:05:09;24.70;99.90
12708;DHT22;6418;50.824;4.718;2022-08-19T11:07:38;24.80;99.90
12708;DHT22;6418;50.824;4.718;2022-08-19T11:10:07;24.90;99.90
12708;DHT22;6418;50.824;4.718;2022-08-19T11:12:37;24.90;99.90
12708;DHT22;6418;50.824;4.718;2022-08-19T11:15:06;25.00;99.90
12708;DHT22;6418;50.824;4.718;2022-08-19T11:17:36;25.00;99.90
12708;DHT22;6418;50.824;4.718;2022-08-19T11:20:07;25.00;99.90
12708;DHT22;6418;50.824;4.718;2022-08-19T11:22:34;24.90;99.90
12708;DHT22;6418;50.824;4.718;2022-08-19T11:25:03;24.90;99.90
12708;DHT22;6418;50.824;4.718;2022-08-19T11:27:30;24.80;99.90
12708;DHT22;6418;50.824;4.718;2022-08-19T11:29:57;24.90;99.90
12708;DHT22;6418;50.824;4.718;2022-08-19T11:32:24;24.90;99.90
12708;DHT22;6418;50.824;4.718;2022-08-19T11:34:51;24.90;99.90
12708;DHT22;6418;50.824;4.718;2022-08-19T11:37:18;24.90;99.90
12708;DHT22;6418;50.824;4.718;2022-08-19T11:39:45;24.80;99.90
12708;DHT22;6418;50.824;4.718;2022-08-19T11:42:13;24.80;99.90
12708;DHT22;6418;50.824;4.718;2022-08-19T11:44:58;24.70;99.90
12708;DHT22;6418;50.824;4.718;2022-08-19T11:47:25;24.70;99.90
12708;DHT22;6418;50.824;4.718;2022-08-19T11:49:52;24.70;99.90
12708;DHT22;6418;50.824;4.718;2022-08-19T11:52:19;24.60;99.90
12708;DHT22;6418;50.824;4.718;2022-08-19T11:54:46;24.50;99.90
12708;DHT22;6418;50.824;4.718;2022-08-19T11:57:14;24.50;99.90
12708;DHT22;6418;50.824;4.718;2022-08-19T11:59:42;24.40;99.90
12708;DHT22;6418;50.824;4.718;2022-08-19T12:02:13;24.40;99.90
12708;DHT22;6418;50.824;4.718;2022-08-19T12:04:40;24.40;99.90
12708;DHT22;6418;50.824;4.718;2022-08-19T12:07:07;24.30;99.90
12708;DHT22;6418;50.824;4.718;2022-08-19T12:09:34;24.30;99.90
12708;DHT22;6418;50.824;4.718;2022-08-19T12:12:01;24.30;99.90
12708;DHT22;6418;50.824;4.718;2022-08-19T12:14:30;24.20;99.90
12708;DHT22;6418;50.824;4.718;2022-08-19T12:16:57;24.20;99.90
12708;DHT22;6418;50.824;4.718;2022-08-19T12:19:25;24.10;99.90
12708;DHT22;6418;50.824;4.718;2022-08-19T12:21:52;24.10;99.90
12708;DHT22;6418;50.824;4.718;2022-08-19T12:24:20;24.10;99.90
12708;DHT22;6418;50.824;4.718;2022-08-19T12:26:49;24.10;99.90
12708;DHT22;6418;50.824;4.718;2022-08-19T12:29:16;24.20;99.90
12708;DHT22;6418;50.824;4.718;2022-08-19T12:31:44;24.20;99.90
12708;DHT22;6418;50.824;4.718;2022-08-19T12:34:11;24.30;99.90
12708;DHT22;6418;50.824;4.718;2022-08-19T12:36:38;24.40;99.90
12708;DHT22;6418;50.824;4.718;2022-08-19T12:39:05;24.50;99.90
12708;DHT22;6418;50.824;4.718;2022-08-19T12:41:33;24.50;99.90
12708;DHT22;6418;50.824;4.718;2022-08-19T12:44:00;24.50;99.90
12708;DHT22;6418;50.824;4.718;2022-08-19T12:46:27;24.60;99.90
12708;DHT22;6418;50.824;4.718;2022-08-19T12:48:56;24.70;99.90
12708;DHT22;6418;50.824;4.718;2022-08-19T12:51:23;24.70;99.90
12708;DHT22;6418;50.824;4.718;2022-08-19T12:53:50;24.90;99.90
12708;DHT22;6418;50.824;4.718;2022-08-19T12:56:17;24.90;99.90
12708;DHT22;6418;50.824;4.718;2022-08-19T12:58:44;25.10;99.90
12708;DHT22;6418;50.824;4.718;2022-08-19T13:01:13;25.10;99.90
12708;DHT22;6418;50.824;4.718;2022-08-19T13:03:41;25.30;99.90
12708;DHT22;6418;50.824;4.718;2022-08-19T13:06:10;25.40;99.90
12708;DHT22;6418;50.824;4.718;2022-08-19T13:08:37;25.50;99.90
12708;DHT22;6418;50.824;4.718;2022-08-19T13:11:10;25.70;99.90
12708;DHT22;6418;50.824;4.718;2022-08-19T13:13:38;25.80;99.90
12708;DHT22;6418;50.824;4.718;2022-08-19T13:16:07;25.90;99.90
12708;DHT22;6418;50.824;4.718;2022-08-19T13:18:35;26.10;99.90
12708;DHT22;6418;50.824;4.718;2022-08-19T13:21:03;26.30;99.90
12708;DHT22;6418;50.824;4.718;2022-08-19T13:23:32;26.30;99.90
12708;DHT22;6418;50.824;4.718;2022-08-19T13:26:00;26.40;99.90
12708;DHT22;6418;50.824;4.718;2022-08-19T13:28:28;26.50;99.90
12708;DHT22;6418;50.824;4.718;2022-08-19T13:31:16;26.60;99.90
12708;DHT22;6418;50.824;4.718;2022-08-19T13:34:00;26.70;99.90
12708;DHT22;6418;50.824;4.718;2022-08-19T13:36:27;26.80;99.90
12708;DHT22;6418;50.824;4.718;2022-08-19T13:38:55;26.80;99.90
12708;DHT22;6418;50.824;4.718;2022-08-19T13:41:23;26.80;99.90
12708;DHT22;6418;50.824;4.718;2022-08-19T13:43:50;26.70;99.90
12708;DHT22;6418;50.824;4.718;2022-08-19T13:46:16;26.60;99.90
12708;DHT22;6418;50.824;4.718;2022-08-19T13:48:46;26.60;99.90
12708;DHT22;6418;50.824;4.718;2022-08-19T13:51:14;26.60;99.90
12708;DHT22;6418;50.824;4.718;2022-08-19T13:53:42;26.50;99.90
12708;DHT22;6418;50.824;4.718;2022-08-19T13:56:16;26.50;99.90
12708;DHT22;6418;50.824;4.718;2022-08-19T13:58:45;26.40;99.90
12708;DHT22;6418;50.824;4.718;2022-08-19T14:01:12;26.50;99.90
12708;DHT22;6418;50.824;4.718;2022-08-19T14:03:39;26.50;99.90
12708;DHT22;6418;50.824;4.718;2022-08-19T14:06:06;26.60;99.90
12708;DHT22;6418;50.824;4.718;2022-08-19T14:08:32;26.60;99.90
12708;DHT22;6418;50.824;4.718;2022-08-19T14:11:00;26.70;99.90
12708;DHT22;6418;50.824;4.718;2022-08-19T14:13:28;26.70;99.90
12708;DHT22;6418;50.824;4.718;2022-08-19T14:15:56;26.50;99.90
12708;DHT22;6418;50.824;4.718;2022-08-19T14:18:23;26.50;99.90
12708;DHT22;6418;50.824;4.718;2022-08-19T14:20:50;26.50;99.90
12708;DHT22;6418;50.824;4.718;2022-08-19T14:23:17;26.40;99.90
12708;DHT22;6418;50.824;4.718;2022-08-19T14:25:45;26.50;99.90
12708;DHT22;6418;50.824;4.718;2022-08-19T14:28:13;26.40;99.90
12708;DHT22;6418;50.824;4.718;2022-08-19T14:30:41;26.50;99.90
12708;DHT22;6418;50.824;4.718;2022-08-19T14:33:10;26.50;99.90
12708;DHT22;6418;50.824;4.718;2022-08-19T14:35:37;26.50;99.90
12708;DHT22;6418;50.824;4.718;2022-08-19T14:38:05;26.50;99.90
12708;DHT22;6418;50.824;4.718;2022-08-19T14:40:33;26.40;99.90
12708;DHT22;6418;50.824;4.718;2022-08-19T14:43:02;26.30;99.90
12708;DHT22;6418;50.824;4.718;2022-08-19T14:45:32;26.30;99.90
12708;DHT22;6418;50.824;4.718;2022-08-19T14:48:00;26.30;99.90
12708;DHT22;6418;50.824;4.718;2022-08-19T14:50:27;26.40;99.90
12708;DHT22;6418;50.824;4.718;2022-08-19T14:52:58;26.30;99.90
12708;DHT22;6418;50.824;4.718;2022-08-19T14:55:26;26.20;99.90
12708;DHT22;6418;50.824;4.718;2022-08-19T14:57:53;26.10;99.90
12708;DHT22;6418;50.824;4.718;2022-08-19T15:00:20;26.00;99.90
12708;DHT22;6418;50.824;4.718;2022-08-19T15:02:48;26.00;99.90
12708;DHT22;6418;50.824;4.718;2022-08-19T15:05:17;26.00;99.90
12708;DHT22;6418;50.824;4.718;2022-08-19T15:07:44;26.10;99.90
12708;DHT22;6418;50.824;4.718;2022-08-19T15:10:12;26.20;99.90
12708;DHT22;6418;50.824;4.718;2022-08-19T15:12:40;26.30;99.90
12708;DHT22;6418;50.824;4.718;2022-08-19T15:15:10;26.50;99.90
12708;DHT22;6418;50.824;4.718;2022-08-19T15:17:39;26.40;99.90
12708;DHT22;6418;50.824;4.718;2022-08-19T15:20:07;26.40;99.90
12708;DHT22;6418;50.824;4.718;2022-08-19T15:22:36;26.40;99.90
12708;DHT22;6418;50.824;4.718;2022-08-19T15:25:04;26.30;99.90
12708;DHT22;6418;50.824;4.718;2022-08-19T15:27:32;26.10;99.90
12708;DHT22;6418;50.824;4.718;2022-08-19T15:30:00;26.00;99.90
12708;DHT22;6418;50.824;4.718;2022-08-19T15:32:27;26.00;99.90
12708;DHT22;6418;50.824;4.718;2022-08-19T15:34:54;25.90;99.90
12708;DHT22;6418;50.824;4.718;2022-08-19T15:37:21;25.80;99.90
12708;DHT22;6418;50.824;4.718;2022-08-19T15:39:51;25.70;99.90
12708;DHT22;6418;50.824;4.718;2022-08-19T15:42:18;25.70;99.90
12708;DHT22;6418;50.824;4.718;2022-08-19T15:44:45;25.70;99.90
12708;DHT22;6418;50.824;4.718;2022-08-19T15:47:12;25.50;99.90
12708;DHT22;6418;50.824;4.718;2022-08-19T15:49:40;25.50;99.90
12708;DHT22;6418;50.824;4.718;2022-08-19T15:52:06;25.60;99.90
12708;DHT22;6418;50.824;4.718;2022-08-19T15:54:33;25.70;99.90